createdAt,value
2022-09-09T00:02:22.442Z,19.64
2022-09-09T00:05:28.349Z,19.56
2022-09-09T00:07:59.349Z,19.57
2022-09-09T00:10:42.729Z,19.54
2022-09-09T00:13:47.189Z,19.52
2022-09-09T00:16:23.346Z,19.50
2022-09-09T00:19:02.900Z,19.46
2022-09-09T00:21:44.568Z,19.41
2022-09-09T00:24:26.645Z,19.40
2022-09-09T00:27:07.366Z,19.34
2022-09-09T00:29:47.621Z,19.26
2022-09-09T00:32:18.236Z,19.23
2022-09-09T00:35:27.437Z,19.20
2022-09-09T00:38:02.541Z,19.18
2022-09-09T00:40:36.095Z,19.14
2022-09-09T00:43:33.310Z,19.11
2022-09-09T00:46:19.249Z,19.12
2022-09-09T00:48:48.798Z,19.14
2022-09-09T00:51:43.511Z,19.11
2022-09-09T00:54:17.223Z,19.11
2022-09-09T00:57:18.328Z,19.09
2022-09-09T00:59:51.558Z,19.10
2022-09-09T01:02:29.025Z,19.12
2022-09-09T01:05:01.551Z,19.12
2022-09-09T01:07:28.498Z,19.07
2022-09-09T01:10:00.454Z,19.04
2022-09-09T01:12:44.591Z,19.02
2022-09-09T01:15:23.334Z,19.01
2022-09-09T01:18:02.235Z,18.96
2022-09-09T01:20:48.821Z,18.94
2022-09-09T01:23:43.395Z,18.88
2022-09-09T01:26:18.611Z,18.83
2022-09-09T01:28:49.837Z,18.79
2022-09-09T01:31:24.389Z,18.79
2022-09-09T01:33:53.567Z,18.80
2022-09-09T01:36:42.278Z,18.82
2022-09-09T01:39:08.885Z,18.86
2022-09-09T01:41:36.516Z,18.89
2022-09-09T01:44:08.398Z,18.91
2022-09-09T01:46:36.883Z,18.93
2022-09-09T01:49:08.362Z,18.94
2022-09-09T01:51:37.110Z,18.89
2022-09-09T01:54:11.699Z,18.85
2022-09-09T01:57:15.920Z,18.81
2022-09-09T02:00:07.270Z,18.80
2022-09-09T02:03:04.920Z,18.77
2022-09-09T02:06:09.486Z,18.72
2022-09-09T02:08:46.353Z,18.75
2022-09-09T02:11:16.032Z,18.77
2022-09-09T02:13:53.848Z,18.77
2022-09-09T02:16:28.756Z,18.78
2022-09-09T02:19:01.937Z,18.79
2022-09-09T02:21:44.967Z,18.78
2022-09-09T02:24:15.303Z,18.75
2022-09-09T02:26:53.263Z,18.71
2022-09-09T02:29:36.826Z,18.67
2022-09-09T02:32:09.038Z,18.68
2022-09-09T02:34:44.306Z,18.68
2022-09-09T02:37:12.943Z,18.64
2022-09-09T02:39:42.733Z,18.61
2022-09-09T02:42:15.806Z,18.60
2022-09-09T02:44:45.097Z,18.60
2022-09-09T02:47:29.171Z,18.58
2022-09-09T02:50:10.292Z,18.59
2022-09-09T02:53:42.192Z,18.62
2022-09-09T02:56:18.434Z,18.70
2022-09-09T02:58:47.477Z,18.73
2022-09-09T03:01:15.422Z,18.73
2022-09-09T03:03:47.468Z,18.75
2022-09-09T03:06:16.619Z,18.73
2022-09-09T03:08:49.363Z,18.69
2022-09-09T03:11:18.481Z,18.69
2022-09-09T03:13:50.278Z,18.72
2022-09-09T03:16:17.865Z,18.71
2022-09-09T03:18:48.124Z,18.69
2022-09-09T03:21:15.283Z,18.65
2022-09-09T03:23:43.361Z,18.64
2022-09-09T03:26:10.356Z,18.67
2022-09-09T03:28:43.533Z,18.66
2022-09-09T03:31:11.548Z,18.66
2022-09-09T03:33:43.732Z,18.66
2022-09-09T03:36:13.455Z,18.67
2022-09-09T03:38:40.358Z,18.70
2022-09-09T03:41:08.831Z,18.70
2022-09-09T03:43:38.767Z,18.68
2022-09-09T03:46:05.606Z,18.71
2022-09-09T03:48:32.189Z,18.73
2022-09-09T03:51:02.085Z,18.78
2022-09-09T03:53:32.804Z,18.80
2022-09-09T03:56:00.775Z,18.81
2022-09-09T03:58:29.306Z,18.85
2022-09-09T04:01:09.530Z,18.86
2022-09-09T04:03:38.483Z,18.88
2022-09-09T04:06:07.869Z,18.87
2022-09-09T04:08:36.646Z,18.89
2022-09-09T04:11:07.230Z,18.90
2022-09-09T04:13:40.023Z,18.91
2022-09-09T04:16:10.335Z,18.95
2022-09-09T04:18:38.072Z,18.98
2022-09-09T04:21:06.275Z,19.00
2022-09-09T04:23:37.681Z,19.00
2022-09-09T04:26:05.774Z,19.03
2022-09-09T04:28:37.245Z,19.04
2022-09-09T04:31:15.318Z,19.05
2022-09-09T04:33:45.223Z,19.10
2022-09-09T04:36:11.745Z,19.16
2022-09-09T04:38:38.430Z,19.17
2022-09-09T04:41:05.938Z,19.16
2022-09-09T04:43:38.301Z,19.19
2022-09-09T04:46:07.326Z,19.20
2022-09-09T04:48:34.548Z,19.23
2022-09-09T04:51:07.472Z,19.26
2022-09-09T04:53:36.686Z,19.27
2022-09-09T04:56:14.557Z,19.25
2022-09-09T04:58:46.370Z,19.22
2022-09-09T05:01:18.528Z,19.21
2022-09-09T05:03:46.889Z,19.20
2022-09-09T05:06:19.003Z,19.21
2022-09-09T05:08:49.149Z,19.21
2022-09-09T05:11:20.608Z,19.25
2022-09-09T05:13:50.951Z,19.27
2022-09-09T05:16:19.399Z,19.28
2022-09-09T05:18:47.106Z,19.30
2022-09-09T05:21:16.203Z,19.34
2022-09-09T05:23:45.865Z,19.34
2022-09-09T05:26:18.683Z,19.35
2022-09-09T05:28:48.612Z,19.38
2022-09-09T05:31:17.932Z,19.36
2022-09-09T05:33:50.978Z,19.38
2022-09-09T05:36:20.093Z,19.36
2022-09-09T05:38:50.199Z,19.35
2022-09-09T05:41:18.052Z,19.36
2022-09-09T05:43:49.721Z,19.34
2022-09-09T05:46:26.235Z,19.35
2022-09-09T05:48:55.034Z,19.36
2022-09-09T05:51:32.869Z,19.37
2022-09-09T05:54:05.529Z,19.38
2022-09-09T05:56:35.540Z,19.39
2022-09-09T05:59:03.091Z,19.40
2022-09-09T06:01:32.786Z,19.42
2022-09-09T06:04:04.809Z,19.44
2022-09-09T06:06:37.726Z,19.43
2022-09-09T06:09:11.138Z,19.45
2022-09-09T06:11:40.159Z,19.44
2022-09-09T06:14:09.315Z,19.46
2022-09-09T06:16:38.741Z,19.46
2022-09-09T06:19:10.826Z,19.49
2022-09-09T06:21:38.326Z,19.53
2022-09-09T06:24:09.335Z,19.57
2022-09-09T06:26:41.906Z,19.58
2022-09-09T06:29:10.811Z,19.61
2022-09-09T06:31:38.533Z,19.61
2022-09-09T06:34:29.446Z,19.64
2022-09-09T06:36:59.305Z,19.67
2022-09-09T06:39:30.187Z,19.70
2022-09-09T06:41:58.676Z,19.74
2022-09-09T06:44:57.142Z,19.82
2022-09-09T06:47:49.663Z,19.86
2022-09-09T06:50:17.578Z,19.91
2022-09-09T06:52:48.571Z,20.01
2022-09-09T06:55:16.902Z,20.09
2022-09-09T06:57:44.245Z,20.15
2022-09-09T07:00:19.200Z,20.20
2022-09-09T07:02:45.746Z,20.23
2022-09-09T07:05:13.314Z,20.30
2022-09-09T07:07:42.025Z,20.38
2022-09-09T07:10:10.279Z,20.47
2022-09-09T07:12:38.508Z,20.54
2022-09-09T07:15:07.226Z,20.57
2022-09-09T07:17:33.811Z,20.60
2022-09-09T07:20:13.150Z,20.69
2022-09-09T07:22:40.337Z,20.78
2022-09-09T07:25:09.311Z,20.93
2022-09-09T07:27:36.663Z,21.12
2022-09-09T07:30:05.882Z,21.26
2022-09-09T07:32:33.647Z,21.35
2022-09-09T07:35:00.866Z,21.42
2022-09-09T07:37:28.316Z,21.44
2022-09-09T07:39:55.015Z,21.49
2022-09-09T07:42:21.494Z,21.52
2022-09-09T07:44:48.397Z,21.58
2022-09-09T07:47:16.604Z,21.71
2022-09-09T07:49:47.213Z,21.84
2022-09-09T07:52:19.662Z,22.04
2022-09-09T07:54:49.440Z,22.23
2022-09-09T07:57:19.592Z,22.35
2022-09-09T07:59:47.527Z,22.47
2022-09-09T08:02:14.002Z,22.62
2022-09-09T08:04:42.168Z,22.73
2022-09-09T08:07:09.018Z,22.82
2022-09-09T08:09:42.921Z,22.79
2022-09-09T08:12:23.686Z,22.74
2022-09-09T08:14:52.570Z,22.70
2022-09-09T08:17:19.930Z,22.65
2022-09-09T08:19:46.975Z,22.61
2022-09-09T08:22:18.338Z,22.56
2022-09-09T08:24:45.046Z,22.51
2022-09-09T08:27:13.411Z,22.50
2022-09-09T08:29:40.369Z,22.51
2022-09-09T08:32:07.379Z,22.52
2022-09-09T08:34:35.416Z,22.47
2022-09-09T08:37:06.692Z,22.45
2022-09-09T08:39:37.968Z,22.46
2022-09-09T08:42:26.782Z,22.50
2022-09-09T08:45:25.602Z,22.49
2022-09-09T08:48:06.262Z,22.49
2022-09-09T08:50:41.766Z,22.47
2022-09-09T08:53:39.043Z,22.51
2022-09-09T08:56:13.746Z,22.52
2022-09-09T08:58:58.203Z,22.51
2022-09-09T09:02:03.590Z,22.48
2022-09-09T09:05:07.790Z,22.47
2022-09-09T09:07:48.998Z,22.47
2022-09-09T09:10:42.298Z,22.47
2022-09-09T09:13:49.349Z,22.49
2022-09-09T09:16:25.786Z,22.51
2022-09-09T09:18:55.363Z,22.55
2022-09-09T09:21:33.938Z,22.59
2022-09-09T09:24:11.537Z,22.60
2022-09-09T09:26:38.571Z,22.58
2022-09-09T09:29:17.335Z,22.58
2022-09-09T09:31:57.686Z,22.56
2022-09-09T09:34:26.254Z,22.52
2022-09-09T09:36:59.621Z,22.49
2022-09-09T09:42:21.786Z,22.44
2022-09-09T09:44:53.177Z,22.42
2022-09-09T09:47:24.386Z,22.45
2022-09-09T09:50:19.989Z,22.46
2022-09-09T09:52:56.681Z,22.46
2022-09-09T09:55:25.134Z,22.47
2022-09-09T09:57:52.796Z,22.46
2022-09-09T10:00:22.849Z,22.48
2022-09-09T10:02:58.078Z,22.51
2022-09-09T10:05:35.991Z,22.52
2022-09-09T10:08:20.079Z,22.52
2022-09-09T10:11:21.025Z,22.54
2022-09-09T10:14:23.170Z,22.55
2022-09-09T10:17:02.514Z,22.54
2022-09-09T10:19:36.388Z,22.52
2022-09-09T10:22:12.134Z,22.50
2022-09-09T10:25:10.725Z,22.49
2022-09-09T10:28:16.545Z,22.55
2022-09-09T10:31:00.626Z,22.62
2022-09-09T10:34:13.017Z,22.65
2022-09-09T10:36:47.666Z,22.65
2022-09-09T10:39:33.482Z,22.65
2022-09-09T10:42:08.989Z,22.63
2022-09-09T10:44:45.732Z,22.60
2022-09-09T10:47:18.189Z,22.54
2022-09-09T10:49:59.981Z,22.49
2022-09-09T10:52:49.753Z,22.48
2022-09-09T10:55:19.557Z,22.48
2022-09-09T10:57:54.839Z,22.44
2022-09-09T11:00:24.915Z,22.37
2022-09-09T11:03:03.050Z,22.28
2022-09-09T11:05:42.454Z,22.19
2022-09-09T11:08:19.507Z,22.07
2022-09-09T11:11:04.530Z,21.98
2022-09-09T11:13:38.265Z,21.89
2022-09-09T11:16:21.736Z,21.81
2022-09-09T11:18:48.501Z,21.75
2022-09-09T11:21:32.535Z,21.71
2022-09-09T11:24:14.201Z,21.68
2022-09-09T11:26:50.543Z,21.70
2022-09-09T11:29:45.706Z,21.71
2022-09-09T11:32:30.286Z,21.74
2022-09-09T11:35:21.851Z,21.76
2022-09-09T11:38:29.468Z,21.79
2022-09-09T11:41:05.349Z,21.83
2022-09-09T11:43:43.475Z,21.87
2022-09-09T11:46:11.531Z,21.89
2022-09-09T11:48:46.855Z,21.96
2022-09-09T11:51:22.395Z,22.07
2022-09-09T11:54:03.879Z,22.24
2022-09-09T11:56:33.081Z,22.36
2022-09-09T11:59:05.285Z,22.52
2022-09-09T12:01:43.971Z,22.71
2022-09-09T12:04:30.114Z,22.89
2022-09-09T12:07:28.038Z,22.98
2022-09-09T12:10:03.189Z,23.02
2022-09-09T12:12:34.313Z,23.02
2022-09-09T12:15:18.490Z,22.98
2022-09-09T12:17:47.616Z,22.91
2022-09-09T12:20:38.303Z,22.83
2022-09-09T12:23:07.458Z,22.71
2022-09-09T12:25:46.036Z,22.66
2022-09-09T12:28:17.545Z,22.63
2022-09-09T12:31:08.892Z,22.64
2022-09-09T12:33:46.265Z,22.61
2022-09-09T12:36:20.314Z,22.59
2022-09-09T12:38:47.502Z,22.61
2022-09-09T12:41:25.823Z,22.68
2022-09-09T12:44:07.073Z,22.72
2022-09-09T12:46:43.203Z,22.81
2022-09-09T12:49:28.401Z,22.93
2022-09-09T12:51:56.330Z,23.04
2022-09-09T12:54:26.017Z,23.12
2022-09-09T12:56:52.642Z,23.17
2022-09-09T12:59:35.690Z,23.23
2022-09-09T13:02:02.395Z,23.28
2022-09-09T13:04:33.026Z,23.26
2022-09-09T13:07:10.971Z,23.26
2022-09-09T13:09:37.714Z,23.28
2022-09-09T13:12:08.180Z,23.28
2022-09-09T13:14:40.586Z,23.30
2022-09-09T13:17:18.229Z,23.31
2022-09-09T13:19:46.431Z,23.31
2022-09-09T13:22:15.092Z,23.30
2022-09-09T13:24:43.454Z,23.26
2022-09-09T13:27:27.674Z,23.22
2022-09-09T13:29:58.281Z,23.16
2022-09-09T13:32:27.879Z,23.09
2022-09-09T13:35:04.735Z,23.01
2022-09-09T13:37:49.088Z,22.98
2022-09-09T13:40:22.579Z,22.95
2022-09-09T13:42:56.039Z,22.91
2022-09-09T13:45:27.727Z,22.85
2022-09-09T13:47:56.351Z,22.77
2022-09-09T13:50:26.989Z,22.69
2022-09-09T13:52:55.659Z,22.64
2022-09-09T13:55:24.996Z,22.62
2022-09-09T13:57:58.394Z,22.56
2022-09-09T14:00:25.480Z,22.49
2022-09-09T14:02:52.255Z,22.42
2022-09-09T14:05:24.244Z,22.37
2022-09-09T14:07:53.166Z,22.40
2022-09-09T14:10:20.139Z,22.45
2022-09-09T14:12:47.603Z,22.50
2022-09-09T14:15:15.440Z,22.59
2022-09-09T14:17:42.163Z,22.67
2022-09-09T14:20:10.165Z,22.76
2022-09-09T14:22:37.390Z,22.89
2022-09-09T14:25:09.139Z,22.99
2022-09-09T14:27:35.625Z,23.08
2022-09-09T14:30:02.376Z,23.11
2022-09-09T14:32:28.932Z,23.14
2022-09-09T14:35:00.301Z,23.17
2022-09-09T14:37:28.450Z,23.21
2022-09-09T14:39:55.004Z,23.26
2022-09-09T14:42:22.377Z,23.35
2022-09-09T14:44:52.138Z,23.44
2022-09-09T14:47:18.626Z,23.55
2022-09-09T14:49:47.285Z,23.65
2022-09-09T14:52:14.046Z,23.79
2022-09-09T14:54:44.614Z,23.92
2022-09-09T14:57:11.186Z,24.06
2022-09-09T14:59:37.670Z,24.17
2022-09-09T15:02:05.159Z,24.28
2022-09-09T15:04:34.885Z,24.30
2022-09-09T15:07:01.362Z,24.37
2022-09-09T15:09:27.858Z,24.40
2022-09-09T15:11:54.363Z,24.40
2022-09-09T15:14:27.061Z,24.37
2022-09-09T15:16:53.537Z,24.36
2022-09-09T15:19:19.991Z,24.34
2022-09-09T15:21:46.442Z,24.30
2022-09-09T15:24:17.960Z,24.23
2022-09-09T15:26:44.582Z,24.17
2022-09-09T15:29:11.077Z,24.12
2022-09-09T15:31:37.596Z,24.06
2022-09-09T15:34:09.002Z,24.03
2022-09-09T15:36:40.509Z,24.01
2022-09-09T15:39:10.619Z,24.00
2022-09-09T15:41:37.131Z,23.98
2022-09-09T15:44:08.427Z,23.91
2022-09-09T15:46:38.532Z,23.83
2022-09-09T15:49:19.171Z,23.76
2022-09-09T15:51:47.757Z,23.70
2022-09-09T15:54:20.708Z,23.65
2022-09-09T15:56:51.150Z,23.50
2022-09-09T15:59:17.598Z,23.25
2022-09-09T16:01:44.949Z,22.95
2022-09-09T16:04:21.190Z,22.63
2022-09-09T16:06:47.900Z,22.34
2022-09-09T16:09:14.363Z,22.13
2022-09-09T16:11:42.873Z,21.97
2022-09-09T16:14:12.002Z,21.86
2022-09-09T16:16:38.567Z,21.78
2022-09-09T16:19:10.788Z,21.71
2022-09-09T16:21:45.510Z,21.64
2022-09-09T16:24:16.327Z,21.55
2022-09-09T16:26:46.206Z,21.50
2022-09-09T16:29:14.129Z,21.48
2022-09-09T16:31:41.492Z,21.47
2022-09-09T16:34:10.630Z,21.45
2022-09-09T16:36:39.983Z,21.41
2022-09-09T16:39:10.178Z,21.37
2022-09-09T16:41:37.944Z,21.34
2022-09-09T16:44:11.247Z,21.34
2022-09-09T16:46:41.572Z,21.35
2022-09-09T16:49:10.474Z,21.40
2022-09-09T16:51:39.965Z,21.43
2022-09-09T16:54:11.008Z,21.44
2022-09-09T16:56:42.265Z,21.43
2022-09-09T16:59:12.145Z,21.40
2022-09-09T17:01:41.641Z,21.37
2022-09-09T17:04:17.140Z,21.33
2022-09-09T17:06:46.397Z,21.33
2022-09-09T17:09:13.989Z,21.35
2022-09-09T17:11:41.045Z,21.34
2022-09-09T17:14:12.188Z,21.32
2022-09-09T17:16:40.453Z,21.32
2022-09-09T17:19:09.213Z,21.29
2022-09-09T17:21:42.757Z,21.28
2022-09-09T17:24:16.850Z,21.21
2022-09-09T17:26:43.955Z,21.15
2022-09-09T17:29:12.199Z,21.12
2022-09-09T17:31:39.028Z,21.09
2022-09-09T17:34:06.041Z,21.07
2022-09-09T17:36:34.553Z,21.06
2022-09-09T17:39:02.485Z,21.07
2022-09-09T17:41:31.978Z,21.07
2022-09-09T17:44:00.491Z,21.03
2022-09-09T17:46:30.550Z,21.01
2022-09-09T17:49:00.591Z,21.02
2022-09-09T17:51:31.078Z,21.04
2022-09-09T17:54:02.192Z,21.05
2022-09-09T17:56:32.278Z,21.06
2022-09-09T17:59:00.398Z,21.08
2022-09-09T18:01:31.242Z,21.08
2022-09-09T18:04:03.667Z,21.09
2022-09-09T18:06:36.246Z,21.07
2022-09-09T18:09:05.613Z,21.07
2022-09-09T18:11:36.438Z,21.03
2022-09-09T18:14:06.012Z,21.01
2022-09-09T18:16:36.110Z,21.02
2022-09-09T18:19:05.460Z,21.02
2022-09-09T18:21:33.901Z,20.99
2022-09-09T18:24:04.565Z,20.99
2022-09-09T18:26:33.628Z,20.98
2022-09-09T18:29:09.615Z,20.95
2022-09-09T18:31:39.570Z,20.94
2022-09-09T18:34:13.191Z,20.91
2022-09-09T18:36:41.282Z,20.89
2022-09-09T18:39:08.840Z,20.87
2022-09-09T18:41:37.943Z,20.85
2022-09-09T18:44:11.142Z,20.85
2022-09-09T18:46:39.890Z,20.84
2022-09-09T18:49:06.881Z,20.81
2022-09-09T18:51:36.899Z,20.76
2022-09-09T18:54:10.649Z,20.74
2022-09-09T18:56:37.258Z,20.71
2022-09-09T18:59:06.559Z,20.68
2022-09-09T19:01:35.652Z,20.67
2022-09-09T19:04:04.101Z,20.64
2022-09-09T19:06:32.610Z,20.62
2022-09-09T19:09:03.222Z,20.59
2022-09-09T19:11:31.108Z,20.58
2022-09-09T19:14:01.995Z,20.59
2022-09-09T19:16:31.247Z,20.55
2022-09-09T19:19:02.102Z,20.53
2022-09-09T19:21:35.617Z,20.51
2022-09-09T19:24:06.443Z,20.49
2022-09-09T19:26:40.435Z,20.46
2022-09-09T19:29:10.123Z,20.41
2022-09-09T19:31:37.773Z,20.39
2022-09-09T19:34:09.622Z,20.38
2022-09-09T19:36:36.110Z,20.36
2022-09-09T19:39:03.921Z,20.34
2022-09-09T19:41:34.261Z,20.34
2022-09-09T19:44:06.034Z,20.36
2022-09-09T19:46:37.439Z,20.38
2022-09-09T19:49:05.455Z,20.42
2022-09-09T19:51:33.742Z,20.45
2022-09-09T19:54:10.692Z,20.47
2022-09-09T19:56:39.047Z,20.47
2022-09-09T19:59:09.742Z,20.50
2022-09-09T20:01:42.246Z,20.55
2022-09-09T20:04:09.109Z,20.56
2022-09-09T20:06:38.981Z,20.59
2022-09-09T20:09:07.404Z,20.57
2022-09-09T20:11:34.684Z,20.56
2022-09-09T20:14:06.568Z,20.58
2022-09-09T20:16:33.744Z,20.61
2022-09-09T20:19:03.631Z,20.63
2022-09-09T20:21:36.018Z,20.63
2022-09-09T20:24:10.929Z,20.61
2022-09-09T20:26:37.859Z,20.59
2022-09-09T20:29:09.882Z,20.60
2022-09-09T20:31:40.562Z,20.56
2022-09-09T20:34:14.451Z,20.54
2022-09-09T20:36:41.734Z,20.53
2022-09-09T20:39:18.078Z,20.52
2022-09-09T20:41:46.245Z,20.48
2022-09-09T20:44:18.790Z,20.43
2022-09-09T20:46:55.397Z,20.37
2022-09-09T20:49:25.637Z,20.33
2022-09-09T20:51:53.478Z,20.27
2022-09-09T20:54:23.880Z,20.22
2022-09-09T20:56:52.619Z,20.20
2022-09-09T20:59:23.962Z,20.20
2022-09-09T21:01:51.424Z,20.21
2022-09-09T21:04:20.384Z,20.19
2022-09-09T21:06:49.112Z,20.18
2022-09-09T21:09:16.094Z,20.19
2022-09-09T21:11:42.525Z,20.21
2022-09-09T21:14:10.536Z,20.25
2022-09-09T21:16:37.190Z,20.30
2022-09-09T21:19:04.431Z,20.30
2022-09-09T21:21:31.109Z,20.30
2022-09-09T21:24:00.770Z,20.25
2022-09-09T21:26:27.792Z,20.24
2022-09-09T21:28:55.858Z,20.23
2022-09-09T21:31:27.724Z,20.23
2022-09-09T21:46:07.640Z,20.12
2022-09-09T21:48:35.246Z,20.16
2022-09-09T21:51:06.549Z,20.11
2022-09-09T21:53:36.622Z,20.08
2022-09-09T21:56:07.139Z,20.09
2022-09-09T21:58:35.486Z,20.11
2022-09-09T22:01:02.270Z,20.16
2022-09-09T22:03:33.383Z,20.18
2022-09-09T22:06:00.134Z,20.16
2022-09-09T22:08:26.624Z,20.12
2022-09-09T22:10:53.090Z,20.12
2022-09-09T22:13:47.182Z,20.13
2022-09-09T22:16:17.016Z,20.17
2022-09-09T22:18:44.215Z,20.17
2022-09-09T22:21:15.882Z,20.12
2022-09-09T22:23:46.740Z,20.09
2022-09-09T22:26:13.267Z,20.08
2022-09-09T22:28:39.812Z,20.05
2022-09-09T22:31:06.582Z,19.99
2022-09-09T22:33:35.291Z,19.95
2022-09-09T22:36:01.891Z,19.93
2022-09-09T22:38:28.352Z,19.92
2022-09-09T22:40:54.892Z,19.91
2022-09-09T22:43:25.639Z,19.90
2022-09-09T22:45:52.148Z,19.87
2022-09-09T22:48:18.737Z,19.84
2022-09-09T22:50:46.609Z,19.85
2022-09-09T22:53:14.970Z,19.86
2022-09-09T22:55:41.590Z,19.86
2022-09-09T22:58:08.358Z,19.87
2022-09-09T23:00:35.140Z,19.89
2022-09-09T23:03:01.725Z,19.91
2022-09-09T23:05:28.303Z,19.91
2022-09-09T23:07:58.190Z,19.89
2022-09-09T23:10:25.210Z,19.86
2022-09-09T23:12:51.691Z,19.83
2022-09-09T23:15:23.024Z,19.80
2022-09-09T23:17:52.041Z,19.78
2022-09-09T23:20:19.497Z,19.75
2022-09-09T23:22:45.961Z,19.75
2022-09-09T23:25:15.615Z,19.74
2022-09-09T23:27:42.137Z,19.73
2022-09-09T23:30:09.881Z,19.72
2022-09-09T23:32:37.124Z,19.69
2022-09-09T23:35:05.026Z,19.67
2022-09-09T23:37:31.820Z,19.66
2022-09-09T23:39:58.285Z,19.63
2022-09-09T23:42:25.794Z,19.60
2022-09-09T23:44:53.889Z,19.58
2022-09-09T23:47:20.469Z,19.62
2022-09-09T23:49:50.744Z,19.63
2022-09-09T23:52:17.710Z,19.61
2022-09-09T23:54:49.801Z,19.60
2022-09-09T23:57:16.267Z,19.60
2022-09-09T23:59:42.736Z,19.60
